Skip Navigation LinksHome page > Weather > Current weather Skip Navigation Links

Current Weather

Central Park, New York

For information only: do not use for flight planning or navigation.
Latest weather
Observation time Friday, October 9, 2015 12:51 AM EDT
Local time Friday, October 9, 2015 12:59 AM EDT
Flight conditions Visual Meteorological Conditions
Wind direction variable
Wind speed 5 mph
Visibility 10 mi.
Sky condition
Ceiling 4,000 ft. overcast
Cloud layer scattered clouds 1,600 ft.
Cloud layer overcast 4,000 ft.
Sky clear
Temperature 62°F
Dewpoint 57°F
Altimeter 30.11 in.Hg
Derived measurements
Relative humidity 84%
Density altitude 363 ft.
Sea-level pressure 30.08 in.Hg
Climate data
Temperature minimum, last 24 hours 59°F
Temperature maximum, last 24 hours 72°F
Special weather observation.
Fully automated report.
System requires maintenance.
Automated weather observing station with precipitation discriminator.
METAR KNYC 090451Z AUTO VRB04KT 10SM CLR 17/14 A3011 RMK AO2 SLP186 T01670139 402220150 $ SPUS99 KWBC 090453 SPECI KAUW 090450Z AUTO 33006KT 10SM SCT016 OVC040 11/08 A3000 RMK AO2 $


Location code

InnerDrive.Weather 4.0.5722.1 Release CLR 4.0.30319.34014
Copyright ©2015 Inner Drive Technology. All rights reserved. Portions Copyright ©1986-2015 David Braverman.

Find weather

Site navigation

Skip Navigation Links

Place info

Page info

PayPal - The safer, easier way to pay online!

Return home.

Copyright ©2015 Inner Drive Technology. Purveyors of fine, hand-crafted computer software. Page printed 2015-10-09T04:59:45 UTC.